Time;durP1;ratioP1;P1;durP2;ratioP2;P2;SDS_P1;SDS_P2;PMS_P1;PMS_P2;Temp;Humidity;BMP_temperature;BMP_pressure;BME280_temperature;BME280_humidity;BME280_pressure;Samples;Min_cycle;Max_cycle;Signal;HPM_P1;HPM_P2
2023/08/19 00:01:45;;;;;;;8.40;7.50;;;;;;;-145.14;100.00;70583.66;4992997;28;20778;-75
2023/08/19 00:04:11;;;;;;;9.00;7.33;;;;;;;-145.14;100.00;70583.66;4992224;28;20279;-75
2023/08/19 00:06:39;;;;;;;8.60;7.80;;;;;;;-145.14;100.00;70583.66;4993256;28;20213;-75
2023/08/19 00:09:07;;;;;;;9.33;7.70;;;;;;;-145.14;100.00;70583.66;4993917;28;20229;-75
2023/08/19 00:11:32;;;;;;;8.37;7.47;;;;;;;-145.14;100.00;70583.66;5000775;28;21105;-75
2023/08/19 00:13:58;;;;;;;9.30;8.40;;;;;;;-145.14;100.00;70583.66;4993553;28;20469;-75
2023/08/19 00:16:24;;;;;;;9.30;8.50;;;;;;;-145.14;100.00;70583.66;4995665;28;20458;-75
2023/08/19 00:18:49;;;;;;;10.33;8.43;;;;;;;-145.14;100.00;70583.66;4992294;28;20456;-75
2023/08/19 00:21:15;;;;;;;9.93;8.17;;;;;;;-145.14;100.00;70583.66;4993943;28;20851;-74
2023/08/19 00:23:40;;;;;;;9.53;8.63;;;;;;;-145.14;100.00;70583.66;4995909;28;20208;-75
2023/08/19 00:26:06;;;;;;;9.13;8.20;;;;;;;-145.14;100.00;70583.66;4994074;28;20638;-75
2023/08/19 00:28:31;;;;;;;9.40;8.40;;;;;;;-145.14;100.00;70583.66;5001305;28;20234;-74
2023/08/19 00:30:57;;;;;;;9.43;8.43;;;;;;;-145.14;100.00;70583.66;4992683;28;20190;-74
2023/08/19 00:33:24;;;;;;;9.30;8.40;;;;;;;-145.14;100.00;70583.66;4993322;28;20220;-74
2023/08/19 00:35:51;;;;;;;8.70;7.77;;;;;;;-145.14;100.00;70583.66;4994225;28;20181;-75
2023/08/19 00:38:17;;;;;;;10.13;8.90;;;;;;;-145.14;100.00;70583.66;4997268;28;20930;-75
2023/08/19 00:40:42;;;;;;;8.77;7.90;;;;;;;-145.14;100.00;70583.66;4996902;28;20562;-74
2023/08/19 00:43:07;;;;;;;9.37;8.47;;;;;;;-145.14;100.00;70583.66;4993436;28;20181;-74
2023/08/19 00:45:33;;;;;;;9.70;8.50;;;;;;;-145.14;100.00;70583.66;4992256;28;20654;-74
2023/08/19 00:47:59;;;;;;;8.70;7.80;;;;;;;-145.14;100.00;70583.66;4990623;28;20186;-74
2023/08/19 00:50:25;;;;;;;9.80;8.80;;;;;;;-145.14;100.00;70583.66;4991999;28;20828;-74
2023/08/19 00:52:51;;;;;;;9.20;8.27;;;;;;;-145.14;100.00;70583.66;4991217;28;20655;-74
2023/08/19 00:55:17;;;;;;;10.80;8.50;;;;;;;-145.14;100.00;70583.66;4990279;28;20539;-74
2023/08/19 00:57:43;;;;;;;9.90;8.80;;;;;;;-145.14;100.00;70583.66;4990912;28;20201;-75
2023/08/19 01:00:08;;;;;;;9.13;8.33;;;;;;;-145.14;100.00;70583.66;4992378;28;20456;-74
2023/08/19 01:02:34;;;;;;;8.40;7.60;;;;;;;-145.14;100.00;70583.66;4991273;28;20697;-74
2023/08/19 01:05:00;;;;;;;9.33;8.43;;;;;;;-145.14;100.00;70583.66;4992656;28;20189;-74
2023/08/19 01:07:37;;;;;;;9.73;8.83;;;;;;;-145.14;100.00;70583.66;5003183;28;20189;-74
2023/08/19 01:10:31;;;;;;;9.33;8.43;;;;;;;-145.14;100.00;70583.66;4993861;28;20213;-74
2023/08/19 01:13:14;;;;;;;9.97;8.97;;;;;;;-145.14;100.00;70583.66;4993715;28;20464;-75
2023/08/19 01:16:17;;;;;;;8.93;8.03;;;;;;;-145.14;100.00;70583.66;4991994;28;20479;-74
2023/08/19 01:18:43;;;;;;;9.23;8.23;;;;;;;-145.14;100.00;70583.66;4998660;28;20436;-74
2023/08/19 01:21:10;;;;;;;8.73;7.83;;;;;;;-145.14;100.00;70583.66;4999232;28;20535;-74
2023/08/19 01:23:42;;;;;;;9.33;8.20;;;;;;;-145.14;100.00;70583.66;4993509;28;20440;-75
2023/08/19 01:26:07;;;;;;;9.43;8.20;;;;;;;-145.14;100.00;70583.66;5002053;28;20532;-75
2023/08/19 01:28:32;;;;;;;9.93;8.83;;;;;;;-145.14;100.00;70583.66;4993912;28;20523;-75
2023/08/19 01:30:59;;;;;;;10.20;8.50;;;;;;;-145.14;100.00;70583.66;4993563;28;20265;-75
2023/08/19 01:33:25;;;;;;;11.50;8.93;;;;;;;-145.14;100.00;70583.66;4989880;28;20208;-75
2023/08/19 01:35:56;;;;;;;9.80;8.80;;;;;;;-145.14;100.00;70583.66;4991416;28;20429;-74
2023/08/19 01:38:45;;;;;;;9.93;8.43;;;;;;;-145.14;100.00;70583.66;4988556;28;20904;-74
2023/08/19 01:41:13;;;;;;;9.93;8.87;;;;;;;-145.14;100.00;70583.66;4992997;28;20425;-75
2023/08/19 01:43:40;;;;;;;9.10;8.30;;;;;;;-145.14;100.00;70583.66;4990459;28;20484;-75
2023/08/19 01:46:06;;;;;;;10.27;8.73;;;;;;;-145.14;100.00;70583.66;4991177;28;20928;-75
2023/08/19 01:48:31;;;;;;;10.10;9.10;;;;;;;-145.14;100.00;70583.66;4991250;28;20445;-75
2023/08/19 01:50:57;;;;;;;9.40;8.40;;;;;;;-145.14;100.00;70583.66;4991623;28;20447;-75
2023/08/19 01:53:22;;;;;;;10.23;9.13;;;;;;;-145.14;100.00;70583.66;4991071;28;20686;-75
2023/08/19 01:55:48;;;;;;;9.70;8.77;;;;;;;-145.14;100.00;70583.66;4992024;28;20532;-75
2023/08/19 01:58:13;;;;;;;9.20;8.30;;;;;;;-145.14;100.00;70583.66;4990354;28;20620;-75
2023/08/19 02:00:38;;;;;;;10.30;8.80;;;;;;;-145.14;100.00;70583.66;4991063;28;20918;-74
2023/08/19 02:03:05;;;;;;;8.30;7.50;;;;;;;-145.14;100.00;70583.66;4992038;28;20647;-75
2023/08/19 02:05:30;;;;;;;9.27;8.30;;;;;;;-145.14;100.00;70583.66;4991554;28;20185;-74
2023/08/19 02:07:56;;;;;;;9.20;8.30;;;;;;;-145.14;100.00;70583.66;4991802;28;20456;-74
2023/08/19 02:10:21;;;;;;;9.53;8.43;;;;;;;-145.14;100.00;70583.66;4992581;28;20212;-74
2023/08/19 02:12:47;;;;;;;9.60;8.60;;;;;;;-145.14;100.00;70583.66;4991980;28;20205;-75
2023/08/19 02:15:12;;;;;;;10.47;8.90;;;;;;;-145.14;100.00;70583.66;4991834;28;20182;-74
2023/08/19 02:17:38;;;;;;;10.47;9.40;;;;;;;-145.14;100.00;70583.66;4992548;28;20817;-75
2023/08/19 02:20:04;;;;;;;10.17;9.17;;;;;;;-145.14;100.00;70583.66;4991598;28;20204;-75
2023/08/19 02:22:29;;;;;;;9.10;8.20;;;;;;;-145.14;100.00;70583.66;4990753;28;20654;-74
2023/08/19 02:24:54;;;;;;;8.93;8.03;;;;;;;-145.14;100.00;70583.66;4990832;28;20189;-75
2023/08/19 02:27:21;;;;;;;10.00;8.97;;;;;;;-145.14;100.00;70583.66;4992777;28;20178;-75
2023/08/19 02:29:46;;;;;;;9.43;8.50;;;;;;;-145.14;100.00;70583.66;4989984;28;20260;-75
2023/08/19 02:32:12;;;;;;;10.10;9.00;;;;;;;-145.14;100.00;70583.66;5000860;28;20437;-75
2023/08/19 02:34:37;;;;;;;11.60;9.95;;;;;;;-145.14;100.00;70583.66;4989776;28;20904;-75
2023/08/19 02:37:02;;;;;;;9.50;8.60;;;;;;;-145.14;100.00;70583.66;4990500;28;20567;-75
2023/08/19 02:39:28;;;;;;;10.00;8.97;;;;;;;-145.14;100.00;70583.66;4995664;28;20205;-75
2023/08/19 02:41:53;;;;;;;9.83;8.87;;;;;;;-145.14;100.00;70583.66;4991247;28;20698;-75
2023/08/19 02:44:19;;;;;;;10.53;9.53;;;;;;;-145.14;100.00;70583.66;4993687;28;20713;-74
2023/08/19 02:46:44;;;;;;;10.37;9.37;;;;;;;-145.14;100.00;70583.66;4989629;28;20186;-75
2023/08/19 02:49:09;;;;;;;10.80;9.70;;;;;;;-145.14;100.00;70583.66;4990323;28;20213;-75
2023/08/19 02:51:35;;;;;;;14.43;9.60;;;;;;;-145.14;100.00;70583.66;4990371;28;20169;-75
2023/08/19 02:54:00;;;;;;;10.95;9.85;;;;;;;-145.14;100.00;70583.66;4989745;28;20863;-75
2023/08/19 02:56:26;;;;;;;10.70;9.70;;;;;;;-145.14;100.00;70583.66;4990569;28;20190;-74
2023/08/19 02:58:51;;;;;;;;;;;;;;;-145.14;100.00;70583.66;5003187;28;20116;-75
2023/08/19 03:01:17;;;;;;;10.80;9.80;;;;;;;-145.14;100.00;70583.66;4990197;28;20505;-75
2023/08/19 03:03:44;;;;;;;11.03;9.40;;;;;;;-145.14;100.00;70583.66;4993318;28;20181;-74
2023/08/19 03:06:10;;;;;;;10.10;9.10;;;;;;;-145.14;100.00;70583.66;4991130;28;20177;-74
2023/08/19 03:08:35;;;;;;;12.30;11.05;;;;;;;-145.14;100.00;70583.66;4993350;28;20801;-74
2023/08/19 03:11:01;;;;;;;11.10;9.57;;;;;;;-145.14;100.00;70583.66;4989880;28;19922;-74
2023/08/19 03:13:26;;;;;;;10.40;9.40;;;;;;;-145.14;100.00;70583.66;4990915;28;20329;-74
2023/08/19 03:15:51;;;;;;;10.10;9.00;;;;;;;-145.14;100.00;70583.66;4991326;28;20691;-74
2023/08/19 03:18:17;;;;;;;10.15;9.15;;;;;;;-145.14;100.00;70583.66;4991504;28;20581;-74
2023/08/19 03:20:42;;;;;;;11.60;10.40;;;;;;;-145.14;100.00;70583.66;4993996;28;20283;-74
2023/08/19 03:23:08;;;;;;;10.85;9.85;;;;;;;-145.14;100.00;70583.66;4993336;28;20651;-74
2023/08/19 03:25:33;;;;;;;12.07;10.87;;;;;;;-145.14;100.00;70583.66;4994051;28;20421;-74
2023/08/19 03:27:59;;;;;;;11.55;10.45;;;;;;;-145.14;100.00;70583.66;4994475;28;20186;-74
2023/08/19 03:30:24;;;;;;;10.35;9.30;;;;;;;-145.14;100.00;70583.66;4994737;28;20124;-74
2023/08/19 03:32:50;;;;;;;10.80;9.70;;;;;;;-145.14;100.00;70583.66;4994635;28;20340;-74
2023/08/19 03:35:15;;;;;;;11.40;10.20;;;;;;;-145.14;100.00;70583.66;4994685;28;20658;-74
2023/08/19 03:37:41;;;;;;;10.55;9.55;;;;;;;-145.14;100.00;70583.66;4993551;28;20207;-74
2023/08/19 03:40:07;;;;;;;10.40;9.40;;;;;;;-145.14;100.00;70583.66;4993779;28;20722;-74
2023/08/19 03:42:33;;;;;;;11.10;10.00;;;;;;;-145.14;100.00;70583.66;4994703;28;20234;-74
2023/08/19 03:44:58;;;;;;;10.40;9.40;;;;;;;-145.14;100.00;70583.66;4992810;28;20409;-74
2023/08/19 03:47:23;;;;;;;;;;;;;;;-145.14;100.00;70583.66;4994568;28;20177;-74
2023/08/19 03:49:49;;;;;;;11.55;10.45;;;;;;;-145.14;100.00;70583.66;4996068;28;20090;-75
2023/08/19 03:52:14;;;;;;;11.00;10.00;;;;;;;-145.14;100.00;70583.66;4993257;28;20204;-74
2023/08/19 03:54:39;;;;;;;;;;;;;;;-145.14;100.00;70583.66;4992879;28;20560;-75
2023/08/19 03:57:05;;;;;;;;;;;;;;;-145.14;100.00;70583.66;4991992;28;19921;-75
2023/08/19 03:59:30;;;;;;;13.10;11.10;;;;;;;-145.14;100.00;70583.66;4995411;28;20386;-74
2023/08/19 04:01:55;;;;;;;;;;;;;;;-145.14;100.00;70583.66;4991593;28;20461;-74
2023/08/19 04:04:21;;;;;;;;;;;;;;;-145.14;100.00;70583.66;4994180;28;19917;-74
2023/08/19 04:06:46;;;;;;;11.07;9.97;;;;;;;-145.14;100.00;70583.66;4992113;28;20469;-74
2023/08/19 04:09:12;;;;;;;12.05;10.85;;;;;;;-145.14;100.00;70583.66;4992850;28;20213;-74
2023/08/19 04:11:38;;;;;;;11.50;10.05;;;;;;;-145.14;100.00;70583.66;4993053;28;20186;-74
2023/08/19 04:14:05;;;;;;;12.10;10.90;;;;;;;-145.14;100.00;70583.66;4995548;28;20208;-74
2023/08/19 04:16:31;;;;;;;12.00;10.80;;;;;;;-145.14;100.00;70583.66;4995182;28;19909;-75
2023/08/19 04:18:57;;;;;;;11.20;10.10;;;;;;;-145.14;100.00;70583.66;4992477;28;20463;-75
2023/08/19 04:21:22;;;;;;;11.10;10.00;;;;;;;-145.14;100.00;70583.66;4993901;28;20195;-75
2023/08/19 04:23:48;;;;;;;12.30;11.10;;;;;;;-145.14;100.00;70583.66;4992885;28;20178;-74
2023/08/19 04:26:14;;;;;;;10.70;9.70;;;;;;;-145.14;100.00;70583.66;4994214;28;20205;-75
2023/08/19 04:28:39;;;;;;;11.70;10.60;;;;;;;-145.14;100.00;70583.66;4995419;28;20427;-75
2023/08/19 04:31:07;;;;;;;11.95;10.75;;;;;;;-145.14;100.00;70583.66;4992699;28;20244;-75
2023/08/19 04:33:34;;;;;;;12.57;11.27;;;;;;;-145.14;100.00;70583.66;4993291;28;20241;-74
2023/08/19 04:35:59;;;;;;;11.00;9.90;;;;;;;-145.14;100.00;70583.66;4994870;28;20432;-75
2023/08/19 04:38:25;;;;;;;11.53;10.40;;;;;;;-145.14;100.00;70583.66;4997149;28;20437;-75
2023/08/19 04:40:51;;;;;;;12.27;10.67;;;;;;;-145.14;100.00;70583.66;5000011;28;20445;-74
2023/08/19 04:43:21;;;;;;;12.90;10.60;;;;;;;-145.14;100.00;70583.66;4993094;28;20185;-74
2023/08/19 04:45:47;;;;;;;15.93;10.40;;;;;;;-145.14;100.00;70583.66;5004377;28;20271;-75
2023/08/19 04:48:13;;;;;;;12.70;10.23;;;;;;;-145.14;100.00;70583.66;4992166;28;20421;-75
2023/08/19 04:50:39;;;;;;;11.23;10.20;;;;;;;-145.14;100.00;70583.66;4992548;28;20467;-75
2023/08/19 04:53:05;;;;;;;11.23;9.97;;;;;;;-145.14;100.00;70583.66;4992211;28;20225;-75
2023/08/19 04:55:30;;;;;;;11.77;10.57;;;;;;;-145.14;100.00;70583.66;4994705;28;20181;-75
2023/08/19 04:57:56;;;;;;;11.63;10.53;;;;;;;-145.14;100.00;70583.66;4991192;28;20440;-75
2023/08/19 05:00:22;;;;;;;10.87;9.63;;;;;;;-145.14;100.00;70583.66;4992779;28;20201;-75
2023/08/19 05:02:48;;;;;;;11.30;10.13;;;;;;;-145.14;100.00;70583.66;4992190;28;20433;-75
2023/08/19 05:05:14;;;;;;;11.60;10.50;;;;;;;-145.14;100.00;70583.66;4995375;28;20200;-74
2023/08/19 05:07:39;;;;;;;12.40;11.07;;;;;;;-145.14;100.00;70583.66;4991729;28;21135;-74
2023/08/19 05:10:06;;;;;;;11.03;9.93;;;;;;;-145.14;100.00;70583.66;4994621;28;20193;-74
2023/08/19 05:12:31;;;;;;;11.07;9.93;;;;;;;-145.14;100.00;70583.66;4993042;28;20212;-74
2023/08/19 05:14:56;;;;;;;10.27;9.27;;;;;;;-145.14;100.00;70583.66;4992193;28;20428;-75
2023/08/19 05:17:22;;;;;;;10.27;9.27;;;;;;;-145.14;100.00;70583.66;4994803;28;20216;-75
2023/08/19 05:19:48;;;;;;;9.90;9.00;;;;;;;-145.14;100.00;70583.66;4992672;28;20220;-75
2023/08/19 05:22:13;;;;;;;10.40;9.40;;;;;;;-145.14;100.00;70583.66;4993524;28;20235;-75
2023/08/19 05:24:38;;;;;;;10.70;9.60;;;;;;;-145.14;100.00;70583.66;4992777;28;20185;-75
2023/08/19 05:27:04;;;;;;;10.53;9.53;;;;;;;-145.14;100.00;70583.66;4990146;28;20186;-75
2023/08/19 05:29:30;;;;;;;10.50;9.50;;;;;;;-145.14;100.00;70583.66;5002201;28;20554;-74
2023/08/19 05:31:57;;;;;;;12.43;9.90;;;;;;;-145.14;100.00;70583.66;4993644;28;20672;-74
2023/08/19 05:34:24;;;;;;;11.03;9.93;;;;;;;-145.14;100.00;70583.66;4995688;28;21118;-74
2023/08/19 05:36:50;;;;;;;10.63;9.63;;;;;;;-145.14;100.00;70583.66;4991655;28;20437;-74
2023/08/19 05:39:15;;;;;;;10.87;9.87;;;;;;;-145.14;100.00;70583.66;4991427;28;20444;-75
2023/08/19 05:41:41;;;;;;;10.00;9.10;;;;;;;-145.14;100.00;70583.66;4991059;28;20654;-74
2023/08/19 05:44:06;;;;;;;9.93;8.90;;;;;;;-145.14;100.00;70583.66;4991876;28;20188;-75
2023/08/19 05:46:32;;;;;;;11.00;9.60;;;;;;;-145.14;100.00;70583.66;4991128;28;20192;-74
2023/08/19 05:48:58;;;;;;;10.40;9.10;;;;;;;-145.14;100.00;70583.66;4993122;28;20721;-74
2023/08/19 05:51:23;;;;;;;9.63;8.70;;;;;;;-145.14;100.00;70583.66;4993193;28;20189;-74
2023/08/19 05:53:48;;;;;;;11.63;9.57;;;;;;;-145.14;100.00;70583.66;4993601;28;20604;-74
2023/08/19 05:56:14;;;;;;;10.30;9.20;;;;;;;-145.14;100.00;70583.66;4991255;28;20590;-74
2023/08/19 05:58:39;;;;;;;10.03;9.13;;;;;;;-145.14;100.00;70583.66;4996769;28;20228;-74
2023/08/19 06:01:07;;;;;;;11.37;10.27;;;;;;;-145.14;100.00;70583.66;4991142;28;20384;-74
2023/08/19 06:03:33;;;;;;;10.37;9.27;;;;;;;-145.14;100.00;70583.66;4992399;28;20190;-74
2023/08/19 06:06:05;;;;;;;11.27;10.17;;;;;;;-145.14;100.00;70583.66;4991920;28;20433;-74
2023/08/19 06:08:31;;;;;;;9.37;8.47;;;;;;;-145.14;100.00;70583.66;4992098;28;20185;-74
2023/08/19 06:11:07;;;;;;;10.07;9.07;;;;;;;-145.14;100.00;70583.66;4990542;28;20512;-74
2023/08/19 06:13:33;;;;;;;9.77;8.80;;;;;;;-145.14;100.00;70583.66;4992038;28;20204;-74
2023/08/19 06:15:59;;;;;;;9.57;8.57;;;;;;;-145.14;100.00;70583.66;5002379;23;20519;-77
2023/08/19 06:18:25;;;;;;;10.20;9.00;;;;;;;-145.14;100.00;70583.66;4992438;28;20606;-77
2023/08/19 06:20:51;;;;;;;10.97;9.33;;;;;;;-145.14;100.00;70583.66;4993763;28;20984;-80
2023/08/19 06:23:20;;;;;;;10.40;9.10;;;;;;;-145.14;100.00;70583.66;4990234;28;20321;-79
2023/08/19 06:25:50;;;;;;;11.40;10.20;;;;;;;-145.14;100.00;70583.66;5000330;28;20455;-79
2023/08/19 06:28:19;;;;;;;11.70;9.73;;;;;;;-145.14;100.00;70583.66;4991489;28;20441;-79
2023/08/19 06:30:45;;;;;;;9.47;8.50;;;;;;;-145.14;100.00;70583.66;4996120;28;20440;-79
2023/08/19 06:33:12;;;;;;;10.47;9.33;;;;;;;-145.14;100.00;70583.66;4991682;28;20513;-79
2023/08/19 06:35:38;;;;;;;9.73;8.73;;;;;;;-145.14;100.00;70583.66;4991708;28;20521;-79
2023/08/19 06:38:12;;;;;;;9.70;8.70;;;;;;;-145.14;100.00;70583.66;4992459;28;20436;-78
2023/08/19 06:40:48;;;;;;;8.00;7.20;;;;;;;-145.14;100.00;70583.66;4990820;28;20264;-79
2023/08/19 06:43:16;;;;;;;9.23;8.27;;;;;;;-145.14;100.00;70583.66;5000932;28;20432;-79
2023/08/19 06:45:43;;;;;;;9.70;8.67;;;;;;;-145.14;100.00;70583.66;4991402;28;20444;-79
2023/08/19 06:48:09;;;;;;;9.53;8.53;;;;;;;-145.14;100.00;70583.66;4994482;28;20949;-79
2023/08/19 06:50:35;;;;;;;11.17;9.37;;;;;;;-145.14;100.00;70583.66;4991277;28;20520;-80
2023/08/19 06:53:04;;;;;;;8.93;8.03;;;;;;;-145.14;100.00;70583.66;4997996;28;20476;-79
2023/08/19 06:55:30;;;;;;;8.20;7.40;;;;;;;-145.14;100.00;70583.66;4996887;28;20205;-79
2023/08/19 06:58:06;;;;;;;9.23;8.27;;;;;;;-145.14;100.00;70583.66;4994903;28;20440;-79
2023/08/19 07:00:33;;;;;;;9.87;8.50;;;;;;;-145.14;100.00;70583.66;4995962;28;20538;-79
2023/08/19 07:03:01;;;;;;;9.03;8.13;;;;;;;-145.14;100.00;70583.66;4996875;28;20432;-80
2023/08/19 07:05:30;;;;;;;8.73;7.53;;;;;;;-145.14;100.00;70583.66;4995348;28;20588;-79
2023/08/19 07:07:57;;;;;;;8.40;7.60;;;;;;;-145.14;100.00;70583.66;5004913;28;20462;-79
2023/08/19 07:10:24;;;;;;;9.87;8.93;;;;;;;-145.14;100.00;70583.66;5004685;28;20965;-79
2023/08/19 07:12:50;;;;;;;8.53;7.60;;;;;;;-145.14;100.00;70583.66;5000108;28;20503;-79
2023/08/19 07:15:16;;;;;;;8.43;7.10;;;;;;;-145.14;100.00;70583.66;4994117;28;20545;-79
2023/08/19 07:17:45;;;;;;;9.53;8.53;;;;;;;-145.14;100.00;70583.66;4995776;28;20182;-80
2023/08/19 07:20:15;;;;;;;9.03;8.10;;;;;;;-145.14;100.00;70583.66;4996422;28;20516;-79
2023/08/19 07:22:43;;;;;;;8.33;7.47;;;;;;;-145.14;100.00;70583.66;4998505;28;21072;-79
2023/08/19 07:25:09;;;;;;;8.70;7.60;;;;;;;-145.14;100.00;70583.66;4994775;28;20452;-79
2023/08/19 07:27:36;;;;;;;8.80;7.90;;;;;;;-145.14;100.00;70583.66;5005094;28;20427;-79
2023/08/19 07:30:03;;;;;;;8.80;7.60;;;;;;;-145.14;100.00;70583.66;4993684;28;20503;-79
2023/08/19 07:32:31;;;;;;;8.63;7.73;;;;;;;-145.14;100.00;70583.66;4995845;28;20488;-79
2023/08/19 07:34:56;;;;;;;9.73;8.00;;;;;;;-145.14;100.00;70583.66;4997025;28;20545;-79
2023/08/19 07:37:23;;;;;;;8.90;8.00;;;;;;;-145.14;100.00;70583.66;4996022;28;21002;-79
2023/08/19 07:39:49;;;;;;;8.70;7.30;;;;;;;-145.14;100.00;70583.66;4996136;28;20613;-79
2023/08/19 07:42:14;;;;;;;9.37;8.30;;;;;;;-145.14;100.00;70583.66;4996000;28;20559;-80
2023/08/19 07:44:40;;;;;;;8.67;7.87;;;;;;;-145.14;100.00;70583.66;4994728;28;20595;-79
2023/08/19 07:47:05;;;;;;;7.80;6.93;;;;;;;-145.14;100.00;70583.66;4996484;28;20185;-79
2023/08/19 07:49:31;;;;;;;9.03;7.43;;;;;;;-145.14;100.00;70583.66;4993388;28;20197;-79
2023/08/19 07:51:56;;;;;;;8.20;7.40;;;;;;;-145.14;100.00;70583.66;4994081;28;20181;-79
2023/08/19 07:54:22;;;;;;;8.70;7.40;;;;;;;-145.14;100.00;70583.66;4996253;28;20240;-79
2023/08/19 07:56:51;;;;;;;9.87;7.80;;;;;;;-145.14;100.00;70583.66;4993113;28;20748;-79
2023/08/19 07:59:16;;;;;;;7.75;6.95;;;;;;;-145.14;100.00;70583.66;4994257;28;21588;-79
2023/08/19 08:01:41;;;;;;;9.23;8.23;;;;;;;-145.14;100.00;70583.66;4994768;28;20450;-79
2023/08/19 08:04:07;;;;;;;9.73;8.10;;;;;;;-145.14;100.00;70583.66;4994519;28;20185;-79
2023/08/19 08:06:33;;;;;;;8.30;7.43;;;;;;;-145.14;100.00;70583.66;4993121;28;20202;-79
2023/08/19 08:08:58;;;;;;;8.67;7.77;;;;;;;-145.14;100.00;70583.66;4994330;28;20212;-79
2023/08/19 08:11:24;;;;;;;8.03;7.23;;;;;;;-145.14;100.00;70583.66;4994362;28;20433;-79
2023/08/19 08:13:49;;;;;;;7.80;7.00;;;;;;;-145.14;100.00;70583.66;4993323;28;20210;-79
2023/08/19 08:16:15;;;;;;;8.80;7.93;;;;;;;-145.14;100.00;70583.66;5006235;28;20232;-79
2023/08/19 08:18:40;;;;;;;8.43;7.63;;;;;;;-145.14;100.00;70583.66;4994867;28;20186;-79
2023/08/19 08:21:05;;;;;;;13.60;7.47;;;;;;;-145.14;100.00;70583.66;4991014;28;20190;-79
2023/08/19 08:23:31;;;;;;;8.07;7.27;;;;;;;-145.14;100.00;70583.66;4997310;28;20196;-80
2023/08/19 08:25:56;;;;;;;8.53;6.90;;;;;;;-145.14;100.00;70583.66;4992818;28;22470;-79
2023/08/19 08:28:22;;;;;;;8.90;8.00;;;;;;;-145.14;100.00;70583.66;4993986;28;20680;-79
2023/08/19 08:30:47;;;;;;;8.00;7.20;;;;;;;-145.14;100.00;70583.66;4994674;28;20535;-79
2023/08/19 08:33:12;;;;;;;8.83;7.93;;;;;;;-145.14;100.00;70583.66;4997110;28;20280;-79
2023/08/19 08:35:38;;;;;;;11.25;8.40;;;;;;;-145.14;100.00;70583.66;4992450;28;20709;-79
2023/08/19 08:38:04;;;;;;;7.33;6.63;;;;;;;-145.14;100.00;70583.66;4995791;28;20424;-79
2023/08/19 08:40:32;;;;;;;8.90;8.00;;;;;;;-145.14;100.00;70583.66;4996135;28;20219;-79
2023/08/19 08:43:02;;;;;;;8.80;7.70;;;;;;;-145.14;100.00;70583.66;4993977;28;20222;-79
2023/08/19 08:45:31;;;;;;;7.73;7.03;;;;;;;-145.14;100.00;70583.66;4993727;28;20453;-79
2023/08/19 08:47:56;;;;;;;8.63;7.53;;;;;;;-145.14;100.00;70583.66;4993138;28;20428;-79
2023/08/19 08:50:22;;;;;;;10.15;8.70;;;;;;;-145.14;100.00;70583.66;4993816;28;20849;-79
2023/08/19 08:52:48;;;;;;;9.10;8.10;;;;;;;-145.14;100.00;70583.66;4991329;28;20468;-79
2023/08/19 08:55:13;;;;;;;7.60;6.80;;;;;;;-145.14;100.00;70583.66;4993201;28;20217;-80
2023/08/19 08:57:39;;;;;;;10.40;8.13;;;;;;;-145.14;100.00;70583.66;4992224;28;21015;-79
2023/08/19 09:00:06;;;;;;;11.10;8.93;;;;;;;-145.14;100.00;70583.66;4992150;28;20177;-79
2023/08/19 09:02:32;;;;;;;11.03;8.57;;;;;;;-145.14;100.00;70583.66;4994713;28;20236;-79
2023/08/19 09:04:59;;;;;;;9.47;8.47;;;;;;;-145.14;100.00;70583.66;4992692;28;20480;-80
2023/08/19 09:07:25;;;;;;;9.43;8.43;;;;;;;-145.14;100.00;70583.66;4993140;28;20926;-79
2023/08/19 09:09:52;;;;;;;8.90;7.55;;;;;;;-145.14;100.00;70583.66;4992752;28;20465;-79
2023/08/19 09:12:20;;;;;;;7.53;6.63;;;;;;;-145.14;100.00;70583.66;4998970;28;20472;-79
2023/08/19 09:14:50;;;;;;;8.60;6.73;;;;;;;-145.14;100.00;70583.66;4993621;28;20424;-79
2023/08/19 09:17:16;;;;;;;11.60;8.75;;;;;;;-145.14;100.00;70583.66;4991796;28;20433;-79
2023/08/19 09:19:42;;;;;;;7.90;7.05;;;;;;;-145.14;100.00;70583.66;4997301;28;20440;-79
2023/08/19 09:22:22;;;;;;;8.43;7.53;;;;;;;-145.14;100.00;70583.66;4991952;28;20550;-79
2023/08/19 09:24:48;;;;;;;7.33;6.53;;;;;;;-145.14;100.00;70583.66;4992115;28;20187;-79
2023/08/19 09:27:23;;;;;;;7.70;6.40;;;;;;;-145.14;100.00;70583.66;4992741;28;20468;-79
2023/08/19 09:29:50;;;;;;;7.47;6.73;;;;;;;-145.14;100.00;70583.66;4992729;28;20493;-79
2023/08/19 09:32:16;;;;;;;7.20;6.50;;;;;;;-145.14;100.00;70583.66;5001711;28;20932;-79
2023/08/19 09:34:41;;;;;;;7.97;6.70;;;;;;;-145.14;100.00;70583.66;5001766;28;20432;-79
2023/08/19 09:37:13;;;;;;;7.87;7.07;;;;;;;23.52;100.00;101342.38;5085642;27;20540;-72
2023/08/19 09:39:39;;;;;;;9.27;8.37;;;;;;;23.63;100.00;101311.13;5084722;28;20435;-72
2023/08/19 09:42:04;;;;;;;11.20;7.70;;;;;;;23.74;100.00;101279.13;5097666;28;20740;-72
2023/08/19 09:44:30;;;;;;;8.37;7.47;;;;;;;23.45;100.00;101226.84;5082972;28;20178;-72
2023/08/19 09:46:56;;;;;;;8.07;6.77;;;;;;;23.80;100.00;101255.28;5081828;28;20194;-73
2023/08/19 09:49:22;;;;;;;8.40;7.17;;;;;;;24.10;100.00;101254.41;5085128;28;21880;-72
2023/08/19 09:51:55;;;;;;;8.60;6.70;;;;;;;24.02;100.00;101231.13;5082289;28;20509;-72
2023/08/19 09:54:22;;;;;;;8.50;6.53;;;;;;;24.23;100.00;101239.25;5082768;28;20440;-72
2023/08/19 09:56:58;;;;;;;12.00;7.30;;;;;;;24.26;100.00;101230.47;5083835;28;20475;-72
2023/08/19 09:59:24;;;;;;;6.70;5.90;;;;;;;24.47;100.00;101236.69;5080928;28;20791;-72
2023/08/19 10:01:52;;;;;;;7.80;6.90;;;;;;;24.31;100.00;101222.22;5083853;28;21016;-72
2023/08/19 10:04:18;;;;;;;8.00;6.60;;;;;;;24.34;100.00;101224.41;5083625;28;20427;-72
2023/08/19 10:06:49;;;;;;;6.97;6.20;;;;;;;24.20;100.00;101182.25;5085656;28;20466;-72
2023/08/19 10:09:22;;;;;;;9.80;6.85;;;;;;;24.67;100.00;101242.06;5085589;28;20427;-72
2023/08/19 10:11:52;;;;;;;7.50;6.20;;;;;;;24.40;100.00;101220.53;5083176;28;20448;-73
2023/08/19 10:14:25;;;;;;;8.43;6.40;;;;;;;24.41;100.00;101222.16;5084923;28;20447;-72
2023/08/19 10:16:52;;;;;;;8.07;6.73;;;;;;;24.32;100.00;101191.78;5080616;28;20609;-72
2023/08/19 10:19:20;;;;;;;6.97;6.17;;;;;;;24.46;100.00;101202.97;5082689;28;20444;-72
2023/08/19 10:21:47;;;;;;;7.40;6.70;;;;;;;24.68;100.00;101226.44;5082580;28;20432;-73
2023/08/19 10:24:16;;;;;;;7.30;5.60;;;;;;;24.62;100.00;101211.94;5082537;28;20478;-73
2023/08/19 10:26:47;;;;;;;7.50;5.60;;;;;;;24.99;100.00;101227.84;5081908;28;20427;-72
2023/08/19 10:29:12;;;;;;;9.00;7.23;;;;;;;25.18;100.00;101233.50;5083985;28;20884;-72
2023/08/19 10:31:37;;;;;;;6.20;5.60;;;;;;;25.04;100.00;101237.97;5082956;28;20510;-72
2023/08/19 10:34:29;;;;;;;7.50;6.63;;;;;;;25.39;100.00;101269.84;5081858;28;20192;-72
2023/08/19 10:37:08;;;;;;;7.37;5.87;;;;;;;25.32;100.00;101279.53;5091967;28;20206;-72
2023/08/19 10:39:35;;;;;;;8.40;6.50;;;;;;;25.50;100.00;101245.03;5083671;28;20431;-72
2023/08/19 10:42:00;;;;;;;7.67;6.20;;;;;;;25.52;100.00;101253.81;5090458;28;20534;-73
2023/08/19 10:44:31;;;;;;;8.00;6.10;;;;;;;25.67;100.00;101279.19;5083309;28;20856;-72
2023/08/19 10:47:10;;;;;;;7.40;5.57;;;;;;;25.60;100.00;101262.25;5082379;28;20547;-72
2023/08/19 10:49:36;;;;;;;7.23;5.13;;;;;;;25.42;100.00;101241.78;5084917;28;20444;-71
2023/08/19 10:52:05;;;;;;;6.30;4.63;;;;;;;24.68;100.00;101119.47;5071355;28;20953;-71
2023/08/19 10:54:38;;;;;;;7.80;5.07;;;;;;;25.67;100.00;101259.97;5070746;28;20183;-72
2023/08/19 10:57:14;;;;;;;6.40;5.40;;;;;;;25.68;100.00;101261.59;5071085;28;20472;-72
2023/08/19 10:59:43;;;;;;;8.70;5.97;;;;;;;25.72;100.00;101272.84;5079186;28;20539;-73
2023/08/19 11:02:09;;;;;;;7.90;5.67;;;;;;;25.03;100.00;101176.78;5068508;28;20459;-72
2023/08/19 11:04:38;;;;;;;7.53;5.13;;;;;;;25.50;100.00;101262.31;5071312;28;20437;-72
2023/08/19 11:07:07;;;;;;;7.90;5.50;;;;;;;25.67;100.00;101239.91;5069892;28;20527;-72